Time;durP1;ratioP1;P1;durP2;ratioP2;P2;SDS_P1;SDS_P2;PMS_P1;PMS_P2;Temp;Humidity;BMP_temperature;BMP_pressure;BME280_temperature;BME280_humidity;BME280_pressure;Samples;Min_cycle;Max_cycle;Signal;HPM_P1;HPM_P2
2023/04/19 00:00:18;;;;;;;33.67;31.13;;;;;;;16.73;47.13;102528.66;5015585;28;20355;-77
2023/04/19 00:02:44;;;;;;;33.58;30.70;;;;;;;16.72;47.19;102525.09;5014886;28;20114;-78
2023/04/19 00:05:10;;;;;;;30.92;28.92;;;;;;;16.70;47.01;102519.03;5015034;28;20116;-79
2023/04/19 00:07:36;;;;;;;32.25;30.10;;;;;;;16.70;47.18;102524.50;5014611;28;20382;-77
2023/04/19 00:10:02;;;;;;;29.98;28.05;;;;;;;16.67;47.38;102527.72;5014988;28;20025;-78
2023/04/19 00:12:27;;;;;;;30.77;28.63;;;;;;;16.65;47.51;102525.22;4973297;28;1240784;-79
2023/04/19 00:14:53;;;;;;;33.22;30.83;;;;;;;16.64;47.54;102520.84;5015839;28;20056;-77
2023/04/19 00:17:18;;;;;;;30.58;28.45;;;;;;;16.64;47.43;102525.47;5015812;28;20121;-79
2023/04/19 00:19:44;;;;;;;32.78;30.45;;;;;;;16.61;47.37;102513.16;5015631;28;20070;-80
2023/04/19 00:22:09;;;;;;;30.20;28.17;;;;;;;16.60;47.55;102511.47;4998656;28;20481;-79
2023/04/19 00:24:35;;;;;;;33.58;31.02;;;;;;;16.60;47.56;102518.81;5016336;28;20463;-75
2023/04/19 00:27:01;;;;;;;31.70;29.50;;;;;;;16.58;47.49;102523.69;5016295;28;20137;-79
2023/04/19 00:29:26;;;;;;;33.28;30.88;;;;;;;16.57;47.40;102516.59;5015838;28;20046;-78
2023/04/19 00:31:51;;;;;;;31.80;29.60;;;;;;;16.56;47.51;102512.22;5015240;28;20034;-80
2023/04/19 00:34:17;;;;;;;32.63;29.80;;;;;;;16.55;47.30;102514.09;5015426;28;20073;-78
2023/04/19 00:36:42;;;;;;;33.95;31.52;;;;;;;16.53;47.31;102509.94;5015628;28;20124;-80
2023/04/19 00:39:08;;;;;;;30.88;28.67;;;;;;;16.51;47.53;102512.91;4997895;28;20389;-78
2023/04/19 00:41:33;;;;;;;31.58;29.35;;;;;;;16.50;47.55;102507.69;4997843;28;20026;-79
2023/04/19 00:43:58;;;;;;;32.75;30.20;;;;;;;16.49;47.63;102512.31;5015531;28;20169;-79
2023/04/19 00:46:24;;;;;;;32.90;30.58;;;;;;;16.46;47.67;102507.34;4998013;28;20467;-78
2023/04/19 00:48:50;;;;;;;31.45;29.15;;;;;;;16.46;47.32;102504.63;5015232;28;20605;-79
2023/04/19 00:51:16;;;;;;;32.35;29.95;;;;;;;16.46;47.45;102504.63;5015230;28;20124;-78
2023/04/19 00:53:42;;;;;;;31.17;29.15;;;;;;;16.44;47.74;102496.69;5015040;28;20033;-78
2023/04/19 00:56:09;;;;;;;30.23;28.00;;;;;;;16.43;47.33;102503.22;5015191;28;20038;-78
2023/04/19 00:58:37;;;;;;;32.05;29.60;;;;;;;16.43;47.58;102505.13;4996726;28;20049;-81
2023/04/19 01:01:03;;;;;;;32.97;30.45;;;;;;;16.42;47.76;102508.88;5014583;28;20397;-79
2023/04/19 01:03:29;;;;;;;33.60;30.63;;;;;;;16.39;47.44;102493.84;5015231;28;20038;-77
2023/04/19 01:05:55;;;;;;;33.17;30.40;;;;;;;16.40;47.63;102505.56;5015086;28;20033;-79
2023/04/19 01:08:20;;;;;;;30.67;28.27;;;;;;;16.37;47.48;102493.25;5014805;28;20160;-79
2023/04/19 01:10:46;;;;;;;31.80;29.27;;;;;;;16.38;47.54;102494.09;5014798;28;20081;-76
2023/04/19 01:13:11;;;;;;;29.58;27.42;;;;;;;16.38;47.34;102502.28;5014766;28;20069;-79
2023/04/19 01:15:37;;;;;;;29.08;27.02;;;;;;;16.37;47.69;102500.59;5014718;28;20034;-78
2023/04/19 01:18:02;;;;;;;31.48;28.95;;;;;;;16.34;47.24;102501.09;5014626;28;20034;-79
2023/04/19 01:20:28;;;;;;;29.92;27.73;;;;;;;16.33;47.45;102502.97;5015489;28;20450;-78
2023/04/19 01:22:53;;;;;;;31.00;28.23;;;;;;;16.32;47.85;102501.31;5015055;28;20370;-78
2023/04/19 01:25:19;;;;;;;29.95;27.77;;;;;;;16.31;47.42;102502.38;5014578;28;20061;-78
2023/04/19 01:27:44;;;;;;;31.30;28.67;;;;;;;16.30;47.83;102497.97;5014464;28;20041;-78
2023/04/19 01:30:10;;;;;;;30.77;28.35;;;;;;;16.30;47.69;102497.16;5014661;28;20493;-78
2023/04/19 01:32:35;;;;;;;30.95;28.77;;;;;;;16.28;47.84;102499.28;5014771;28;20044;-79
2023/04/19 01:35:01;;;;;;;32.33;29.98;;;;;;;16.27;47.44;102495.75;5014756;28;20081;-77
2023/04/19 01:37:26;;;;;;;29.77;27.73;;;;;;;16.27;47.78;102497.66;5014593;28;20038;-78
2023/04/19 01:39:51;;;;;;;31.85;29.30;;;;;;;16.25;47.69;102495.13;5014888;28;20034;-77
2023/04/19 01:42:17;;;;;;;31.30;29.27;;;;;;;16.23;47.80;102503.56;5014399;28;20037;-78
2023/04/19 01:44:42;;;;;;;30.40;28.05;;;;;;;16.23;47.68;102498.13;5014384;28;20111;-76
2023/04/19 01:47:08;;;;;;;32.25;29.83;;;;;;;16.23;47.81;102491.84;5014233;28;20030;-79
2023/04/19 01:49:33;;;;;;;29.63;27.27;;;;;;;16.21;47.83;102493.97;5014497;28;20112;-81
2023/04/19 01:51:59;;;;;;;31.50;28.73;;;;;;;16.19;47.91;102496.09;5014058;28;20044;-78
2023/04/19 01:54:25;;;;;;;30.77;28.25;;;;;;;16.20;47.76;102492.31;5014139;28;20488;-81
2023/04/19 01:56:51;;;;;;;32.33;29.50;;;;;;;16.19;47.68;102496.94;5014833;28;20037;-79
2023/04/19 01:59:16;;;;;;;29.92;27.67;;;;;;;16.19;47.70;102499.66;5014185;28;20045;-80
2023/04/19 02:01:42;;;;;;;26.52;24.77;;;;;;;16.18;47.69;102499.91;5014455;28;20056;-79
2023/04/19 02:04:08;;;;;;;32.20;29.60;;;;;;;16.16;47.83;102497.41;5014140;28;20544;-80
2023/04/19 02:06:33;;;;;;;31.48;28.65;;;;;;;16.16;48.13;102494.69;5014082;28;20030;-79
2023/04/19 02:08:58;;;;;;;32.90;30.25;;;;;;;16.16;47.91;102485.69;5014119;28;20033;-78
2023/04/19 02:11:24;;;;;;;30.80;28.42;;;;;;;16.16;48.00;102485.69;5013585;28;20454;-79
2023/04/19 02:13:49;;;;;;;30.58;28.23;;;;;;;16.15;47.70;102487.59;5013909;28;20094;-79
2023/04/19 02:16:15;;;;;;;30.55;28.05;;;;;;;16.15;47.81;102489.47;5014126;28;20037;-77
2023/04/19 02:18:40;;;;;;;30.92;28.65;;;;;;;16.14;47.82;102490.53;5014085;28;20477;-78
2023/04/19 02:21:07;;;;;;;31.85;29.45;;;;;;;16.13;47.77;102478.81;5014040;28;20033;-79
2023/04/19 02:23:34;;;;;;;29.13;26.73;;;;;;;16.12;47.71;102484.50;5013741;28;20029;-79
2023/04/19 02:26:01;;;;;;;31.80;28.90;;;;;;;16.12;48.29;102484.50;5012534;28;20171;-78
2023/04/19 02:28:30;;;;;;;33.65;30.73;;;;;;;16.10;48.29;102475.72;5014587;28;20065;-78
2023/04/19 02:30:56;;;;;;;;;;;;;;;16.07;48.17;102474.28;5014315;28;20037;-78
2023/04/19 02:33:22;;;;;;;30.42;28.02;;;;;;;16.07;48.02;102476.19;5013942;28;19910;-77
2023/04/19 02:35:47;;;;;;;29.92;27.50;;;;;;;16.06;48.33;102478.09;5013876;28;20532;-74
2023/04/19 02:38:12;;;;;;;30.80;28.48;;;;;;;16.07;48.27;102478.91;4996071;28;20033;-79
2023/04/19 02:40:38;;;;;;;33.03;30.25;;;;;;;16.07;48.32;102470.75;5013921;28;20053;-79
2023/04/19 02:43:03;;;;;;;33.88;31.23;;;;;;;16.06;48.11;102475.38;5013564;28;20112;-78
2023/04/19 02:45:29;;;;;;;30.83;28.48;;;;;;;16.07;48.34;102478.91;5013629;28;20382;-79
2023/04/19 02:47:54;;;;;;;30.70;28.20;;;;;;;16.07;48.11;102476.19;5013452;28;20113;-78
2023/04/19 02:50:20;;;;;;;28.42;26.50;;;;;;;16.07;48.17;102477.00;4996010;28;20037;-78
2023/04/19 02:52:45;;;;;;;31.48;29.02;;;;;;;16.07;48.21;102473.47;5013965;28;20073;-78
2023/04/19 02:55:11;;;;;;;31.20;28.45;;;;;;;16.07;48.48;102473.47;5013831;28;20493;-79
2023/04/19 02:57:36;;;;;;;30.75;28.35;;;;;;;16.07;48.20;102476.19;5013739;28;20081;-78
2023/04/19 03:00:04;;;;;;;33.58;30.88;;;;;;;16.07;48.42;102482.47;5013575;28;20049;-79
2023/04/19 03:02:29;;;;;;;32.05;28.73;;;;;;;16.07;48.19;102476.19;5013718;28;20044;-78
2023/04/19 03:04:54;;;;;;;33.08;30.10;;;;;;;16.07;48.29;102474.28;5013600;28;20058;-80
2023/04/19 03:07:20;;;;;;;32.03;29.42;;;;;;;16.06;48.25;102480.00;5013809;28;20062;-79
2023/04/19 03:09:45;;;;;;;31.60;29.30;;;;;;;16.05;48.07;102476.44;4996424;28;20038;-78
2023/04/19 03:12:11;;;;;;;31.63;29.08;;;;;;;16.05;48.27;102470.13;5013460;28;20042;-77
2023/04/19 03:14:36;;;;;;;30.77;28.48;;;;;;;16.05;48.40;102479.19;5013678;28;20033;-78
2023/04/19 03:17:02;;;;;;;31.60;28.98;;;;;;;16.05;48.07;102478.31;5013043;28;20034;-79
2023/04/19 03:19:28;;;;;;;30.50;28.10;;;;;;;16.05;47.92;102473.72;5013898;28;20486;-80
2023/04/19 03:21:53;;;;;;;31.10;28.75;;;;;;;16.05;48.34;102467.41;5013620;28;20026;-76
2023/04/19 03:24:19;;;;;;;29.20;26.98;;;;;;;16.05;48.26;102467.41;5016620;28;20474;-79
2023/04/19 03:26:44;;;;;;;32.58;30.08;;;;;;;16.04;48.27;102474.78;5016942;28;20124;-80
2023/04/19 03:29:10;;;;;;;31.67;29.08;;;;;;;16.04;48.40;102476.66;5016751;28;20066;-78
2023/04/19 03:31:36;;;;;;;30.08;27.77;;;;;;;16.02;48.22;102466.00;5016542;28;20042;-78
2023/04/19 03:34:01;;;;;;;31.27;28.88;;;;;;;16.01;48.47;102465.16;5016908;28;20425;-78
2023/04/19 03:36:26;;;;;;;32.10;29.88;;;;;;;16.04;48.62;102465.78;5017094;28;20462;-79
2023/04/19 03:38:52;;;;;;;28.52;26.60;;;;;;;16.03;48.63;102470.41;5016282;28;20061;-79
2023/04/19 03:41:22;;;;;;;31.02;28.45;;;;;;;16.02;48.55;102461.38;5016441;28;20033;-80
2023/04/19 03:43:50;;;;;;;30.52;28.13;;;;;;;16.02;48.29;102464.09;5016407;28;20030;-78
2023/04/19 03:46:16;;;;;;;30.90;28.58;;;;;;;16.02;48.56;102463.25;5016270;28;20168;-78
2023/04/19 03:48:41;;;;;;;30.90;28.65;;;;;;;16.00;48.48;102462.66;4999069;28;20065;-77
2023/04/19 03:51:07;;;;;;;32.08;29.75;;;;;;;16.00;48.86;102463.53;5015683;28;20117;-79
2023/04/19 03:53:32;;;;;;;30.10;27.90;;;;;;;16.00;48.48;102460.81;5016468;28;20038;-78
2023/04/19 03:55:58;;;;;;;30.42;28.02;;;;;;;16.01;48.62;102464.34;5017468;28;20076;-78
2023/04/19 03:58:23;;;;;;;28.83;26.80;;;;;;;15.99;48.45;102464.56;5017136;28;20033;-79
2023/04/19 04:00:49;;;;;;;29.27;27.02;;;;;;;15.99;48.14;102467.28;5017054;28;20124;-78
2023/04/19 04:03:15;;;;;;;31.50;28.60;;;;;;;15.98;48.95;102462.94;5016882;28;20041;-78
2023/04/19 04:05:40;;;;;;;29.88;27.77;;;;;;;15.99;48.75;102458.31;4999077;28;20030;-79
2023/04/19 04:08:05;;;;;;;31.63;29.20;;;;;;;15.98;48.36;102460.19;5016006;28;20043;-79
2023/04/19 04:10:31;;;;;;;31.88;29.55;;;;;;;15.98;48.79;102465.66;5015713;28;20136;-78
2023/04/19 04:12:56;;;;;;;27.42;25.52;;;;;;;15.98;48.65;102468.38;5016433;28;20475;-75
2023/04/19 04:15:22;;;;;;;29.48;27.48;;;;;;;15.98;48.79;102457.47;5015017;28;20026;-79
2023/04/19 04:17:47;;;;;;;26.48;24.92;;;;;;;15.98;48.96;102473.00;5016017;28;20026;-78
2023/04/19 04:20:13;;;;;;;33.85;31.13;;;;;;;15.97;48.55;102472.16;5015884;28;20084;-78
2023/04/19 04:22:42;;;;;;;28.23;26.30;;;;;;;15.98;48.60;102464.81;5015896;28;20390;-79
2023/04/19 04:25:08;;;;;;;30.80;28.67;;;;;;;15.97;48.87;102468.59;5015902;28;20033;-77
2023/04/19 04:27:34;;;;;;;30.15;27.95;;;;;;;15.95;48.73;102471.59;5015422;28;20061;-79
2023/04/19 04:30:00;;;;;;;30.10;27.60;;;;;;;15.96;48.89;102469.69;5015551;28;20490;-74
2023/04/19 04:32:26;;;;;;;28.67;26.35;;;;;;;15.96;48.82;102475.13;4981941;28;20037;-79
2023/04/19 04:34:51;;;;;;;28.98;26.95;;;;;;;15.95;48.93;102471.59;5014862;28;20117;-79
2023/04/19 04:37:17;;;;;;;29.30;27.10;;;;;;;15.95;48.86;102474.31;5015511;28;20034;-80
2023/04/19 04:39:42;;;;;;;28.10;26.30;;;;;;;15.95;48.88;102477.03;5015085;28;20137;-80
2023/04/19 04:42:08;;;;;;;29.92;27.65;;;;;;;15.95;48.63;102470.72;5015287;28;20038;-78
2023/04/19 04:44:35;;;;;;;30.70;28.13;;;;;;;15.94;48.66;102475.34;5015216;28;20049;-81
2023/04/19 04:47:00;;;;;;;30.10;27.75;;;;;;;15.94;48.76;102472.63;5015615;28;20076;-75
2023/04/19 04:49:25;;;;;;;29.95;27.60;;;;;;;15.94;49.05;102475.34;5015324;28;20120;-81
2023/04/19 04:51:51;;;;;;;30.98;28.70;;;;;;;15.95;48.73;102485.22;5015650;28;20034;-80
2023/04/19 04:54:16;;;;;;;30.38;28.15;;;;;;;15.94;48.99;102485.44;5015108;28;20030;-81
2023/04/19 04:56:41;;;;;;;29.13;26.80;;;;;;;15.93;49.10;102487.34;4997617;28;20029;-81
2023/04/19 04:59:07;;;;;;;31.27;28.77;;;;;;;15.92;48.72;102491.09;5014820;28;20034;-82
2023/04/19 05:01:32;;;;;;;32.88;30.27;;;;;;;15.93;48.81;102491.97;5015079;28;20513;-81
2023/04/19 05:03:58;;;;;;;28.83;26.60;;;;;;;15.92;49.07;102490.28;5015010;28;20034;-81
2023/04/19 05:06:23;;;;;;;28.83;26.65;;;;;;;15.90;48.65;102493.25;5015395;28;20022;-79
2023/04/19 05:08:49;;;;;;;29.77;27.77;;;;;;;15.89;48.77;102490.75;5015357;28;20461;-80
2023/04/19 05:11:15;;;;;;;29.95;27.75;;;;;;;15.89;49.08;102499.75;5014797;28;20081;-81
2023/04/19 05:13:40;;;;;;;30.38;28.17;;;;;;;15.89;48.72;102499.75;5015014;28;20053;-78
2023/04/19 05:16:06;;;;;;;31.13;28.60;;;;;;;15.90;48.99;102495.13;5014946;28;20123;-79
2023/04/19 05:18:31;;;;;;;29.65;27.55;;;;;;;15.88;48.87;102498.13;5014769;28;20454;-81
2023/04/19 05:20:56;;;;;;;29.48;27.58;;;;;;;15.86;49.07;102497.50;5014714;28;20494;-81
2023/04/19 05:23:22;;;;;;;28.85;26.92;;;;;;;15.88;49.06;102497.28;5014558;28;20106;-80
2023/04/19 05:25:47;;;;;;;27.17;25.55;;;;;;;15.88;48.86;102494.56;5014920;28;20493;-80
2023/04/19 05:28:13;;;;;;;29.10;26.88;;;;;;;15.87;49.15;102492.88;5014795;28;20030;-79
2023/04/19 05:30:38;;;;;;;26.65;24.80;;;;;;;15.87;49.14;102495.59;5014787;28;20433;-81
2023/04/19 05:33:04;;;;;;;29.33;27.33;;;;;;;15.87;48.87;102501.88;5014689;28;20037;-77
2023/04/19 05:35:29;;;;;;;27.30;25.40;;;;;;;15.86;49.15;102505.69;5014096;28;20561;-78
2023/04/19 05:37:55;;;;;;;28.13;26.17;;;;;;;15.86;49.14;102502.97;4996945;28;20061;-82
2023/04/19 05:40:22;;;;;;;28.00;26.10;;;;;;;15.86;48.88;102502.13;5013982;28;20121;-82
2023/04/19 05:42:48;;;;;;;27.95;26.15;;;;;;;15.87;48.64;102498.34;5014289;28;20041;-78
2023/04/19 05:45:20;;;;;;;28.60;26.60;;;;;;;15.87;48.65;102506.50;5014378;28;20030;-82
2023/04/19 05:47:46;;;;;;;28.02;26.02;;;;;;;15.86;48.78;102502.13;5014299;28;20470;-79
2023/04/19 05:50:16;;;;;;;28.88;26.88;;;;;;;15.86;48.96;102496.69;5013808;28;20045;-78
2023/04/19 05:52:42;;;;;;;25.80;24.20;;;;;;;15.86;48.74;102499.41;5014456;28;20037;-80
2023/04/19 05:55:07;;;;;;;28.90;26.90;;;;;;;15.86;48.67;102504.88;5014180;28;20484;-78
2023/04/19 05:57:33;;;;;;;26.25;24.75;;;;;;;15.85;48.83;102505.91;5013812;28;20026;-81
2023/04/19 05:59:58;;;;;;;27.70;25.90;;;;;;;15.85;48.97;102503.19;5014317;28;20108;-82
2023/04/19 06:02:23;;;;;;;26.35;24.67;;;;;;;15.84;48.76;102504.25;5014057;28;20043;-83
2023/04/19 06:04:49;;;;;;;26.92;25.38;;;;;;;15.85;48.95;102503.19;5014020;28;20064;-83
2023/04/19 06:07:14;;;;;;;26.95;25.25;;;;;;;15.84;48.88;102496.91;5013982;28;20038;-81
2023/04/19 06:09:40;;;;;;;27.27;25.27;;;;;;;15.86;48.72;102510.31;4996510;28;20037;-81
2023/04/19 06:12:05;;;;;;;26.40;24.67;;;;;;;15.86;48.95;102508.41;5013828;28;20262;-82
2023/04/19 06:14:31;;;;;;;26.10;24.33;;;;;;;15.87;48.67;102509.25;5012948;28;20088;-81
2023/04/19 06:16:56;;;;;;;29.08;27.20;;;;;;;15.84;48.79;102515.16;5014413;28;20117;-79
2023/04/19 06:19:22;;;;;;;27.50;25.70;;;;;;;15.85;48.91;102514.94;5013837;28;20113;-78
2023/04/19 06:21:48;;;;;;;26.08;24.58;;;;;;;15.86;48.86;102515.75;5012549;28;20034;-81
2023/04/19 06:24:13;;;;;;;27.60;25.60;;;;;;;15.86;48.95;102523.94;5013736;28;20363;-79
2023/04/19 06:26:39;;;;;;;24.52;23.20;;;;;;;15.86;48.46;102515.75;5014253;28;20088;-79
2023/04/19 06:29:05;;;;;;;27.00;25.02;;;;;;;15.87;48.76;102526.41;5013774;28;20084;-83
2023/04/19 06:31:32;;;;;;;26.35;24.63;;;;;;;15.87;48.64;102515.50;5013906;28;20077;-82
2023/04/19 06:33:57;;;;;;;28.40;26.42;;;;;;;15.87;48.39;102515.50;5014048;28;20030;-79
2023/04/19 06:36:23;;;;;;;31.52;29.10;;;;;;;15.88;48.93;102516.38;5013915;28;20048;-80
2023/04/19 06:38:49;;;;;;;28.13;25.70;;;;;;;15.89;48.31;102513.38;5013413;28;20466;-79
2023/04/19 06:41:14;;;;;;;27.35;25.67;;;;;;;15.88;48.85;102514.47;5013746;28;20117;-78
2023/04/19 06:43:41;;;;;;;25.67;24.23;;;;;;;15.89;48.55;102515.28;5013796;28;20087;-87
2023/04/19 06:46:07;;;;;;;29.83;27.92;;;;;;;15.89;48.73;102507.94;5013885;28;20053;-88
2023/04/19 06:48:33;;;;;;;25.88;24.17;;;;;;;15.89;49.09;102513.38;5013421;28;20396;-86
2023/04/19 06:50:59;;;;;;;27.25;25.58;;;;;;;15.88;48.64;102511.75;4996025;28;20034;-87
2023/04/19 06:53:26;;;;;;;29.13;27.23;;;;;;;15.91;48.78;102513.16;5014165;28;20038;-87
2023/04/19 06:56:01;;;;;;;24.17;22.80;;;;;;;15.91;48.44;102511.25;5013826;28;20040;-87
2023/04/19 06:58:27;;;;;;;27.80;26.00;;;;;;;15.92;48.67;102515.63;5016452;28;20048;-86
2023/04/19 07:00:53;;;;;;;28.13;26.30;;;;;;;15.93;48.63;102506.41;5002384;28;20026;-86
2023/04/19 07:03:18;;;;;;;29.38;27.15;;;;;;;15.95;48.68;102504.28;5024915;28;20408;-89
2023/04/19 07:05:44;;;;;;;28.13;26.33;;;;;;;15.96;48.20;102505.94;5000366;28;20034;-91
2023/04/19 07:08:09;;;;;;;27.38;25.58;;;;;;;15.96;48.74;102507.84;5000053;28;20038;-91
2023/04/19 07:10:34;;;;;;;27.23;25.27;;;;;;;15.96;48.69;102503.22;5018155;28;20386;-89
2023/04/19 07:13:00;;;;;;;27.33;25.38;;;;;;;15.96;48.47;102511.38;4999878;28;20038;-90
2023/04/19 07:15:25;;;;;;;25.95;24.30;;;;;;;15.95;48.63;102509.75;5017430;28;20034;-88
2023/04/19 07:17:50;;;;;;;27.20;25.60;;;;;;;15.98;48.80;102505.72;5000609;28;20470;-91
2023/04/19 07:20:16;;;;;;;27.30;25.48;;;;;;;15.99;48.60;102507.34;5017449;28;20495;-89
2023/04/19 07:22:41;;;;;;;28.17;26.20;;;;;;;16.01;48.77;102508.78;5017324;28;20112;-88
2023/04/19 07:25:07;;;;;;;28.55;26.65;;;;;;;16.04;48.23;102509.38;5017757;28;20109;-89
2023/04/19 07:27:32;;;;;;;28.73;26.55;;;;;;;16.05;48.38;102500.97;4999590;28;20107;-91
2023/04/19 07:29:58;;;;;;;28.45;26.67;;;;;;;16.05;48.38;102509.16;5017057;28;20121;-86
2023/04/19 07:32:23;;;;;;;27.92;26.10;;;;;;;16.07;48.18;102512.44;5017223;28;20037;-87
2023/04/19 07:34:50;;;;;;;29.80;27.98;;;;;;;16.10;48.48;102501.09;5016582;28;20485;-86
2023/04/19 07:37:15;;;;;;;29.02;26.88;;;;;;;16.12;48.42;102501.66;5017066;28;20405;-79
2023/04/19 07:39:41;;;;;;;26.42;24.80;;;;;;;16.14;48.01;102493.25;5016908;28;20030;-90
2023/04/19 07:42:06;;;;;;;26.88;25.17;;;;;;;16.15;48.36;102498.50;4999043;28;20042;-89
2023/04/19 07:44:31;;;;;;;28.52;26.63;;;;;;;16.18;47.95;102502.63;5016443;28;20466;-88
2023/04/19 07:46:57;;;;;;;29.45;27.67;;;;;;;16.21;47.99;102499.44;5016519;28;20030;-88
2023/04/19 07:49:22;;;;;;;29.50;27.50;;;;;;;16.23;48.03;102494.56;5017146;28;20133;-88
2023/04/19 07:51:48;;;;;;;28.23;26.42;;;;;;;16.27;47.96;102493.00;4999089;28;20496;-84
2023/04/19 07:54:15;;;;;;;26.65;25.15;;;;;;;16.28;48.10;102494.69;4998799;28;20041;-90
2023/04/19 07:56:41;;;;;;;25.10;23.73;;;;;;;16.31;48.21;102491.47;5016179;28;20037;-90
2023/04/19 07:59:06;;;;;;;29.55;27.48;;;;;;;16.37;47.91;102495.16;5016310;28;20245;-90
2023/04/19 08:01:31;;;;;;;27.60;25.88;;;;;;;16.39;48.12;102484.84;5016482;28;20526;-89
2023/04/19 08:03:57;;;;;;;27.85;26.17;;;;;;;16.43;47.71;102481.38;5016529;28;20030;-87
2023/04/19 08:06:22;;;;;;;29.13;27.30;;;;;;;16.46;48.05;102482.81;5016262;28;20037;-88
2023/04/19 08:08:48;;;;;;;29.63;27.70;;;;;;;16.51;48.18;102482.09;5015532;28;20033;-82
2023/04/19 08:11:13;;;;;;;29.80;27.42;;;;;;;16.56;47.87;102487.66;5016773;28;20054;-83
2023/04/19 08:13:38;;;;;;;30.40;28.50;;;;;;;16.62;47.84;102482.06;5016037;28;20416;-84
2023/04/19 08:16:04;;;;;;;29.70;27.85;;;;;;;16.66;47.68;102485.97;5015766;28;20044;-83
2023/04/19 08:18:30;;;;;;;29.48;27.60;;;;;;;16.72;47.87;102486.91;4998408;28;20034;-82
2023/04/19 08:20:59;;;;;;;28.58;26.75;;;;;;;16.77;47.67;102487.00;5018383;28;20057;-87
2023/04/19 08:23:24;;;;;;;29.10;27.42;;;;;;;16.81;47.86;102485.50;5017676;28;20045;-86
2023/04/19 08:25:50;;;;;;;28.65;26.65;;;;;;;16.86;47.77;102476.56;5015776;28;20034;-88
2023/04/19 08:28:16;;;;;;;30.13;28.25;;;;;;;16.93;47.69;102481.88;5016002;28;20109;-85
2023/04/19 08:30:41;;;;;;;31.45;29.45;;;;;;;16.99;47.86;102486.38;5015403;28;20507;-85
2023/04/19 08:33:07;;;;;;;30.88;28.23;;;;;;;17.04;47.77;102481.00;5014215;28;20092;-86
2023/04/19 08:35:34;;;;;;;31.38;29.17;;;;;;;17.10;47.37;102485.50;5015713;28;20140;-77
2023/04/19 08:37:59;;;;;;;28.95;27.15;;;;;;;17.15;47.52;102485.59;5015798;28;20038;-90
2023/04/19 08:40:25;;;;;;;28.65;26.95;;;;;;;17.22;47.73;102482.72;4997498;28;20045;-75
2023/04/19 08:42:50;;;;;;;29.80;27.95;;;;;;;17.28;47.52;102485.28;5016628;28;20425;-84
2023/04/19 08:45:18;;;;;;;31.13;29.17;;;;;;;17.35;47.25;102481.56;4998092;28;20164;-84
2023/04/19 08:47:47;;;;;;;31.10;29.08;;;;;;;17.41;47.56;102484.16;5016180;28;20060;-83
2023/04/19 08:50:13;;;;;;;31.85;29.83;;;;;;;17.46;47.59;102484.25;5014131;28;20034;-77
2023/04/19 08:52:39;;;;;;;29.50;27.85;;;;;;;17.52;47.41;102468.78;5014979;28;20030;-85
2023/04/19 08:55:07;;;;;;;30.45;28.70;;;;;;;17.58;47.78;102467.78;5015104;28;20363;-74
2023/04/19 08:57:34;;;;;;;34.78;32.47;;;;;;;17.62;47.32;102465.38;5014939;28;20513;-80
2023/04/19 09:00:04;;;;;;;31.45;29.45;;;;;;;17.67;47.42;102468.19;5014715;28;20478;-81
2023/04/19 09:02:49;;;;;;;29.63;27.83;;;;;;;17.70;47.22;102460.31;5015208;28;20481;-81
2023/04/19 09:05:16;;;;;;;30.80;29.00;;;;;;;17.76;47.43;102465.88;5014882;28;20187;-84
2023/04/19 09:07:42;;;;;;;34.72;32.28;;;;;;;17.84;47.08;102470.94;5014778;28;20038;-78
2023/04/19 09:10:19;;;;;;;33.03;30.83;;;;;;;17.88;46.74;102458.44;4996928;28;20042;-81
2023/04/19 09:13:04;;;;;;;30.38;28.55;;;;;;;17.93;47.29;102474.91;5014839;28;20038;-83
2023/04/19 09:15:38;;;;;;;32.00;30.00;;;;;;;17.97;47.39;102465.16;5014737;28;20030;-82
2023/04/19 09:18:06;;;;;;;33.38;31.17;;;;;;;18.03;47.27;102463.31;5014343;28;20446;-85
2023/04/19 09:20:42;;;;;;;34.67;32.22;;;;;;;18.09;46.71;102459.56;5013613;28;20386;-81
2023/04/19 09:23:12;;;;;;;31.98;30.00;;;;;;;18.15;46.59;102466.78;5014353;28;20439;-85
2023/04/19 09:25:38;;;;;;;32.65;30.55;;;;;;;18.17;46.81;102457.25;5014249;28;20033;-85
2023/04/19 09:28:11;;;;;;;31.38;29.60;;;;;;;18.22;46.23;102463.84;5014190;28;20393;-82
2023/04/19 09:30:38;;;;;;;33.20;31.20;;;;;;;18.25;46.85;102449.69;5014035;28;20066;-83
2023/04/19 09:33:03;;;;;;;32.40;30.23;;;;;;;18.31;46.66;102452.22;5014253;28;20033;-84
2023/04/19 09:35:43;;;;;;;33.78;31.73;;;;;;;18.34;46.00;102459.09;5013997;28;20030;-82
2023/04/19 09:38:10;;;;;;;32.90;30.85;;;;;;;18.41;46.32;102461.66;5013601;28;20034;-83
2023/04/19 09:40:36;;;;;;;32.20;30.40;;;;;;;18.42;46.37;102461.41;5013748;28;20034;-77
2023/04/19 09:43:02;;;;;;;32.30;30.27;;;;;;;18.44;46.01;102450.19;4996547;28;20029;-86
2023/04/19 09:45:40;;;;;;;33.15;31.15;;;;;;;18.47;45.35;102452.41;5014322;28;20558;-85
2023/04/19 09:48:06;;;;;;;32.17;30.23;;;;;;;18.52;45.76;102447.88;5013968;28;20048;-90
2023/04/19 09:50:32;;;;;;;35.35;32.80;;;;;;;18.55;45.59;102447.34;5014108;28;20512;-88
2023/04/19 09:52:58;;;;;;;33.65;31.60;;;;;;;18.62;45.82;102460.81;5012578;28;20029;-86
2023/04/19 09:55:25;;;;;;;31.83;29.90;;;;;;;18.66;45.89;102448.28;5013920;28;20472;-87
2023/04/19 09:57:51;;;;;;;33.97;31.95;;;;;;;18.69;45.49;102450.50;5013944;28;20030;-85
2023/04/19 10:00:17;;;;;;;32.67;30.77;;;;;;;18.73;45.39;102445.38;4996144;28;20048;-85
2023/04/19 10:02:46;;;;;;;33.88;31.92;;;;;;;18.76;45.52;102456.66;5013847;28;20026;-89
2023/04/19 10:05:14;;;;;;;;;;;;;;;18.76;45.64;102450.34;5014292;28;20061;-88
2023/04/19 10:07:40;;;;;;;31.48;29.73;;;;;;;18.78;45.46;102445.47;5013900;28;19956;-82
2023/04/19 10:10:07;;;;;;;33.55;31.00;;;;;;;18.82;45.32;102443.84;4996476;28;20061;-85
2023/04/19 10:12:34;;;;;;;31.65;29.83;;;;;;;18.86;45.11;102444.16;5014731;28;20093;-87
2023/04/19 10:14:59;;;;;;;33.17;31.27;;;;;;;18.90;45.60;102443.41;5013679;28;20037;-83
2023/04/19 10:17:25;;;;;;;33.95;31.88;;;;;;;18.94;45.50;102443.69;5013864;28;20029;-79
2023/04/19 10:19:56;;;;;;;34.33;32.30;;;;;;;18.99;45.29;102439.09;5013267;28;20073;-82
2023/04/19 10:22:23;;;;;;;34.42;32.42;;;;;;;19.03;45.14;102442.97;5014280;28;20064;-83
2023/04/19 10:25:14;;;;;;;33.65;31.63;;;;;;;19.05;45.40;102434.53;5013851;28;20454;-81
2023/04/19 10:27:44;;;;;;;34.47;32.40;;;;;;;19.10;45.18;102436.47;5013490;28;20026;-82
2023/04/19 10:30:21;;;;;;;34.10;32.22;;;;;;;19.13;44.67;102450.47;5013763;28;20037;-81
2023/04/19 10:32:56;;;;;;;34.10;32.22;;;;;;;19.15;44.47;102448.31;5017643;28;20037;-83
2023/04/19 10:35:29;;;;;;;34.13;32.22;;;;;;;19.18;44.33;102442.31;5018162;28;20144;-79
2023/04/19 10:38:34;;;;;;;35.47;33.38;;;;;;;19.18;44.33;102446.97;5017621;28;20030;-80
2023/04/19 10:41:00;;;;;;;34.63;32.70;;;;;;;19.23;44.43;102449.75;5017408;28;20462;-81
2023/04/19 10:43:33;;;;;;;33.80;31.92;;;;;;;19.24;44.41;102441.25;5017427;28;20053;-82
2023/04/19 10:46:20;;;;;;;34.17;32.35;;;;;;;19.26;44.14;102437.47;5017260;28;20060;-81
2023/04/19 10:48:52;;;;;;;34.08;32.10;;;;;;;19.30;44.29;102425.69;5017139;28;20038;-81
2023/04/19 10:51:19;;;;;;;32.47;30.77;;;;;;;19.33;44.26;102421.63;5015897;28;20295;-83
2023/04/19 10:53:47;;;;;;;34.50;32.70;;;;;;;19.35;43.74;102439.47;5017060;28;20160;-79
2023/04/19 10:56:13;;;;;;;33.22;31.33;;;;;;;19.38;44.33;102427.16;5016970;28;20062;-79
2023/04/19 10:59:01;;;;;;;35.90;33.80;;;;;;;19.40;43.79;102427.69;4999671;28;20125;-79
2023/04/19 11:01:45;;;;;;;33.40;31.63;;;;;;;19.40;43.81;102425.81;5016838;28;20488;-80
2023/04/19 11:04:12;;;;;;;35.63;33.58;;;;;;;19.42;44.11;102414.56;5017185;28;20034;-82
2023/04/19 11:07:00;;;;;;;36.55;34.45;;;;;;;19.43;43.54;102418.97;4999938;28;20034;-81